Weather

Currently

Time Weather Temperature Precipitation Clouds Wind Wind Bumps Pressure
14:48 -2,1 °C -5,2 °C 0,0 mm/h 80 % 1,0 m/s 1036,1 mb

Current values recorded by the weather station installed in the spa park. Data updated at 14:48.


Forecast

Time Weather Temperature Precipitation Clouds Wind Wind Bumps Pressure
14:00 1,2 °C 0 mm/h 2 % 0,8 m/s 2,6 m/s 1042 hPa
15:00 1,3 °C 0 mm/h 2 % 0,9 m/s 2,4 m/s 1041 hPa
16:00 0,4 °C 0 mm/h 0 % 0,9 m/s 2,3 m/s 1041 hPa
17:00 -1,5 °C 0 mm/h 0 % 1,2 m/s 1,8 m/s 1041 hPa
18:00 -3,1 °C 0 mm/h 0 % 0,4 m/s 1,8 m/s 1040 hPa
19:00 -4,4 °C 0 mm/h 55 % 1,5 m/s 2,2 m/s 1040 hPa
20:00 -4,7 °C 0 mm/h 100 % 1 m/s 3 m/s 1040 hPa
21:00 -4,6 °C 0 mm/h 73 % 1 m/s 2,3 m/s 1039 hPa
22:00 -4,9 °C 0 mm/h 41 % 0,5 m/s 1,8 m/s 1039 hPa
23:00 -5,6 °C 0 mm/h 71 % 0,2 m/s 0,7 m/s 1039 hPa

Forecast data of ČHMÚ (Czech hydrometeorological institute) based on Aladin numerical model for Konstantinovy Lázně area. The data is updated daily at 6:00.

Time Weather Temperature Precipitation Clouds Wind Wind Bumps Pressure
00:00 -6 °C 0 mm/h 70 % 0,2 m/s 0,1 m/s 1038 hPa
01:00 -6,2 °C 0 mm/h 67 % 0,3 m/s 0,3 m/s 1037 hPa
02:00 -6,4 °C 0 mm/h 58 % 0,4 m/s 0,2 m/s 1036 hPa
03:00 -6,7 °C 0 mm/h 67 % 0,4 m/s 0,2 m/s 1036 hPa
04:00 -6,2 °C 0 mm/h 0 % 0,9 m/s 1,2 m/s 1035 hPa
05:00 -6,4 °C 0 mm/h 0 % 1 m/s 1,5 m/s 1034 hPa
06:00 -6,7 °C 0 mm/h 0 % 0,9 m/s 1,6 m/s 1034 hPa
07:00 -6,8 °C 0 mm/h 0 % 0,7 m/s 1,1 m/s 1035 hPa
08:00 -6,7 °C 0 mm/h 2 % 0,6 m/s 0,6 m/s 1035 hPa
09:00 -5,9 °C 0 mm/h 5 % 1,2 m/s 1,6 m/s 1035 hPa
10:00 -3,7 °C 0 mm/h 0 % 2,2 m/s 3,7 m/s 1034 hPa
11:00 -0,8 °C 0 mm/h 9 % 1,3 m/s 3,8 m/s 1034 hPa
12:00 2,2 °C 0 mm/h 22 % 1,4 m/s 3,5 m/s 1033 hPa
13:00 4,1 °C 0 mm/h 29 % 2,7 m/s 6,4 m/s 1033 hPa
14:00 3,8 °C 0 mm/h 1 % 2,3 m/s 6,7 m/s 1033 hPa
15:00 3,6 °C 0 mm/h 1 % 1,7 m/s 5,6 m/s 1033 hPa
16:00 2,8 °C 0 mm/h 1 % 2 m/s 4,4 m/s 1033 hPa
17:00 1,3 °C 0 mm/h 2 % 2,2 m/s 4,7 m/s 1033 hPa
18:00 -0,1 °C 0 mm/h 2 % 1,9 m/s 4,5 m/s 1033 hPa
19:00 -0,7 °C 0 mm/h 2 % 2,2 m/s 4,1 m/s 1034 hPa
20:00 -0,4 °C 0 mm/h 3 % 2,5 m/s 5,5 m/s 1035 hPa
21:00 -0,9 °C 0 mm/h 17 % 1,8 m/s 5,3 m/s 1035 hPa
22:00 -1,9 °C 0 mm/h 31 % 1,2 m/s 3 m/s 1035 hPa
23:00 -2,7 °C 0,01 mm/h 13 % 1 m/s 1,7 m/s 1036 hPa

Forecast data of ČHMÚ (Czech hydrometeorological institute) based on Aladin numerical model for Konstantinovy Lázně area. The data is updated daily at 6:00.

Time Weather Temperature Precipitation Clouds Wind Wind Bumps Pressure
00:00 -3,5 °C 0 mm/h 0 % 0,4 m/s 1,4 m/s 1036 hPa
01:00 -4 °C 0 mm/h 6 % 0,4 m/s 0,6 m/s 1036 hPa
02:00 -4,3 °C 0 mm/h 0 % 1,3 m/s 1,9 m/s 1036 hPa
03:00 -4,7 °C 0 mm/h 0 % 1,4 m/s 1,9 m/s 1036 hPa
04:00 -5 °C 0 mm/h 0 % 0,9 m/s 1,9 m/s 1035 hPa
05:00 -5,2 °C 0 mm/h 0 % 1,1 m/s 1,4 m/s 1035 hPa
06:00 -5,4 °C 0 mm/h 0 % 1,1 m/s 1,4 m/s 1035 hPa
07:00 -5,5 °C 0 mm/h 0 % 1,1 m/s 1,5 m/s 1035 hPa
08:00 -5,5 °C 0 mm/h 84 % 0,9 m/s 1,4 m/s 1035 hPa
09:00 -4,1 °C 0 mm/h 83 % 1,1 m/s 1,5 m/s 1036 hPa
10:00 -2,1 °C 0 mm/h 5 % 0,9 m/s 1,5 m/s 1035 hPa
11:00 0,1 °C 0 mm/h 0 % 0,9 m/s 2,5 m/s 1035 hPa
12:00 1,6 °C 0 mm/h 7 % 1,4 m/s 3,9 m/s 1034 hPa
13:00 2,4 °C 0 mm/h 0 % 1,4 m/s 4 m/s 1033 hPa
14:00 2,8 °C 0 mm/h 0 % 1,4 m/s 3,9 m/s 1032 hPa
15:00 2,9 °C 0 mm/h 0 % 1,4 m/s 3,6 m/s 1031 hPa
16:00 2,2 °C 0 mm/h 0 % 1,5 m/s 3,8 m/s 1031 hPa
17:00 0,2 °C 0 mm/h 0 % 1,2 m/s 3,4 m/s 1031 hPa
18:00 -1,4 °C 0 mm/h 0 % 1,6 m/s 2,3 m/s 1031 hPa
19:00 -2,5 °C 0 mm/h 0 % 1,6 m/s 2,4 m/s 1030 hPa
20:00 -3,1 °C 0 mm/h 0 % 1,8 m/s 2,7 m/s 1030 hPa
21:00 -3,6 °C 0 mm/h 0 % 1,6 m/s 2,7 m/s 1030 hPa
22:00 -3,9 °C 0 mm/h 0 % 1,4 m/s 2,3 m/s 1029 hPa
23:00 -4,2 °C 0 mm/h 0 % 1,2 m/s 2 m/s 1029 hPa

Forecast data of ČHMÚ (Czech hydrometeorological institute) based on Aladin numerical model for Konstantinovy Lázně area. The data is updated daily at 6:00.